sensor_id;sensor_type;location;lat;lon;timestamp;P1;durP1;ratioP1;P2;durP2;ratioP2
60205;SDS011;46072;51.554;6.846;2022-10-16T00:00:25;23.55;;;11.02;;
60205;SDS011;46072;51.554;6.846;2022-10-16T00:02:51;21.90;;;9.60;;
60205;SDS011;46072;51.554;6.846;2022-10-16T00:05:18;18.60;;;9.13;;
60205;SDS011;46072;51.554;6.846;2022-10-16T00:07:44;26.17;;;9.85;;
60205;SDS011;46072;51.554;6.846;2022-10-16T00:10:10;19.23;;;10.55;;
60205;SDS011;46072;51.554;6.846;2022-10-16T00:12:37;21.25;;;9.75;;
60205;SDS011;46072;51.554;6.846;2022-10-16T00:15:03;21.52;;;10.35;;
60205;SDS011;46072;51.554;6.846;2022-10-16T00:17:30;19.17;;;10.57;;
60205;SDS011;46072;51.554;6.846;2022-10-16T00:19:57;19.15;;;10.02;;
60205;SDS011;46072;51.554;6.846;2022-10-16T00:22:23;19.90;;;10.20;;
60205;SDS011;46072;51.554;6.846;2022-10-16T00:24:50;20.00;;;10.40;;
60205;SDS011;46072;51.554;6.846;2022-10-16T00:27:17;21.33;;;10.18;;
60205;SDS011;46072;51.554;6.846;2022-10-16T00:29:43;21.23;;;10.93;;
60205;SDS011;46072;51.554;6.846;2022-10-16T00:32:10;20.35;;;9.70;;
60205;SDS011;46072;51.554;6.846;2022-10-16T00:34:36;19.60;;;9.70;;
60205;SDS011;46072;51.554;6.846;2022-10-16T00:37:03;26.77;;;10.48;;
60205;SDS011;46072;51.554;6.846;2022-10-16T00:39:29;18.02;;;9.70;;
60205;SDS011;46072;51.554;6.846;2022-10-16T00:41:55;20.08;;;10.13;;
60205;SDS011;46072;51.554;6.846;2022-10-16T00:47:34;34.80;;;9.27;;
60205;SDS011;46072;51.554;6.846;2022-10-16T00:52:41;19.95;;;9.85;;
60205;SDS011;46072;51.554;6.846;2022-10-16T00:55:10;19.38;;;9.05;;
60205;SDS011;46072;51.554;6.846;2022-10-16T00:57:37;24.50;;;8.80;;
60205;SDS011;46072;51.554;6.846;2022-10-16T01:00:06;22.25;;;9.15;;
60205;SDS011;46072;51.554;6.846;2022-10-16T01:02:34;18.77;;;9.88;;
60205;SDS011;46072;51.554;6.846;2022-10-16T01:05:01;18.50;;;8.40;;
60205;SDS011;46072;51.554;6.846;2022-10-16T01:11:35;19.92;;;9.20;;
60205;SDS011;46072;51.554;6.846;2022-10-16T01:13:48;23.08;;;10.02;;
60205;SDS011;46072;51.554;6.846;2022-10-16T01:16:25;19.13;;;9.02;;
60205;SDS011;46072;51.554;6.846;2022-10-16T01:19:01;15.13;;;8.77;;
60205;SDS011;46072;51.554;6.846;2022-10-16T01:21:33;25.60;;;9.27;;
60205;SDS011;46072;51.554;6.846;2022-10-16T01:24:11;19.42;;;9.43;;
60205;SDS011;46072;51.554;6.846;2022-10-16T01:29:48;18.55;;;9.32;;
60205;SDS011;46072;51.554;6.846;2022-10-16T01:37:46;31.00;;;10.07;;
60205;SDS011;46072;51.554;6.846;2022-10-16T01:40:29;19.55;;;8.63;;
60205;SDS011;46072;51.554;6.846;2022-10-16T01:43:03;23.17;;;8.93;;
60205;SDS011;46072;51.554;6.846;2022-10-16T01:45:31;17.98;;;9.23;;
60205;SDS011;46072;51.554;6.846;2022-10-16T01:47:58;20.45;;;8.82;;
60205;SDS011;46072;51.554;6.846;2022-10-16T01:50:26;20.40;;;9.20;;
60205;SDS011;46072;51.554;6.846;2022-10-16T01:52:53;16.45;;;9.05;;
60205;SDS011;46072;51.554;6.846;2022-10-16T01:55:29;18.10;;;9.63;;
60205;SDS011;46072;51.554;6.846;2022-10-16T01:57:58;21.15;;;9.85;;
60205;SDS011;46072;51.554;6.846;2022-10-16T02:00:25;20.42;;;9.50;;
60205;SDS011;46072;51.554;6.846;2022-10-16T02:02:53;22.58;;;10.10;;
60205;SDS011;46072;51.554;6.846;2022-10-16T02:05:23;20.95;;;9.38;;
60205;SDS011;46072;51.554;6.846;2022-10-16T02:07:52;19.42;;;8.93;;
60205;SDS011;46072;51.554;6.846;2022-10-16T02:10:19;18.00;;;8.93;;
60205;SDS011;46072;51.554;6.846;2022-10-16T02:12:48;16.20;;;7.97;;
60205;SDS011;46072;51.554;6.846;2022-10-16T02:15:17;19.58;;;8.93;;
60205;SDS011;46072;51.554;6.846;2022-10-16T02:17:43;14.45;;;8.35;;
60205;SDS011;46072;51.554;6.846;2022-10-16T02:20:10;14.98;;;8.18;;
60205;SDS011;46072;51.554;6.846;2022-10-16T02:22:41;14.68;;;7.65;;
60205;SDS011;46072;51.554;6.846;2022-10-16T02:25:10;16.35;;;8.52;;
60205;SDS011;46072;51.554;6.846;2022-10-16T02:30:28;16.77;;;7.95;;
60205;SDS011;46072;51.554;6.846;2022-10-16T02:32:57;18.60;;;8.30;;
60205;SDS011;46072;51.554;6.846;2022-10-16T02:35:25;18.23;;;8.65;;
60205;SDS011;46072;51.554;6.846;2022-10-16T02:37:53;17.17;;;8.80;;
60205;SDS011;46072;51.554;6.846;2022-10-16T02:40:19;16.05;;;8.80;;
60205;SDS011;46072;51.554;6.846;2022-10-16T02:42:51;16.98;;;8.90;;
60205;SDS011;46072;51.554;6.846;2022-10-16T02:45:20;20.00;;;8.35;;
60205;SDS011;46072;51.554;6.846;2022-10-16T02:47:47;15.73;;;6.85;;
60205;SDS011;46072;51.554;6.846;2022-10-16T02:50:14;13.05;;;6.63;;
60205;SDS011;46072;51.554;6.846;2022-10-16T02:52:41;12.00;;;5.88;;
60205;SDS011;46072;51.554;6.846;2022-10-16T02:55:08;11.40;;;6.20;;
60205;SDS011;46072;51.554;6.846;2022-10-16T02:57:35;12.85;;;5.75;;
60205;SDS011;46072;51.554;6.846;2022-10-16T03:00:09;11.10;;;5.38;;
60205;SDS011;46072;51.554;6.846;2022-10-16T03:02:37;14.32;;;5.25;;
60205;SDS011;46072;51.554;6.846;2022-10-16T03:05:03;16.95;;;5.47;;
60205;SDS011;46072;51.554;6.846;2022-10-16T03:07:30;10.88;;;5.50;;
60205;SDS011;46072;51.554;6.846;2022-10-16T03:09:56;15.30;;;4.93;;
60205;SDS011;46072;51.554;6.846;2022-10-16T03:12:26;15.18;;;5.18;;
60205;SDS011;46072;51.554;6.846;2022-10-16T03:14:53;10.02;;;4.80;;
60205;SDS011;46072;51.554;6.846;2022-10-16T03:17:20;11.15;;;4.80;;
60205;SDS011;46072;51.554;6.846;2022-10-16T03:19:46;8.55;;;4.80;;
60205;SDS011;46072;51.554;6.846;2022-10-16T03:22:12;7.05;;;4.30;;
60205;SDS011;46072;51.554;6.846;2022-10-16T03:24:39;7.93;;;4.22;;
60205;SDS011;46072;51.554;6.846;2022-10-16T03:27:05;9.57;;;4.60;;
60205;SDS011;46072;51.554;6.846;2022-10-16T03:29:32;9.02;;;4.35;;
60205;SDS011;46072;51.554;6.846;2022-10-16T03:31:59;8.85;;;4.25;;
60205;SDS011;46072;51.554;6.846;2022-10-16T03:34:25;9.48;;;4.00;;
60205;SDS011;46072;51.554;6.846;2022-10-16T03:36:52;10.38;;;4.43;;
60205;SDS011;46072;51.554;6.846;2022-10-16T03:39:18;7.72;;;3.63;;
60205;SDS011;46072;51.554;6.846;2022-10-16T03:41:45;9.18;;;4.30;;
60205;SDS011;46072;51.554;6.846;2022-10-16T03:44:14;7.88;;;3.78;;
60205;SDS011;46072;51.554;6.846;2022-10-16T03:46:41;9.82;;;4.20;;
60205;SDS011;46072;51.554;6.846;2022-10-16T03:49:07;10.00;;;3.92;;
60205;SDS011;46072;51.554;6.846;2022-10-16T03:51:35;8.32;;;4.15;;
60205;SDS011;46072;51.554;6.846;2022-10-16T03:54:01;9.68;;;4.18;;
60205;SDS011;46072;51.554;6.846;2022-10-16T03:56:28;9.68;;;4.35;;
60205;SDS011;46072;51.554;6.846;2022-10-16T03:58:54;8.13;;;3.88;;
60205;SDS011;46072;51.554;6.846;2022-10-16T04:01:21;11.48;;;4.50;;
60205;SDS011;46072;51.554;6.846;2022-10-16T04:03:47;9.15;;;4.10;;
60205;SDS011;46072;51.554;6.846;2022-10-16T04:06:14;7.65;;;4.05;;
60205;SDS011;46072;51.554;6.846;2022-10-16T04:08:42;8.65;;;4.07;;
60205;SDS011;46072;51.554;6.846;2022-10-16T04:11:09;9.23;;;3.95;;
60205;SDS011;46072;51.554;6.846;2022-10-16T04:13:36;7.80;;;4.10;;
60205;SDS011;46072;51.554;6.846;2022-10-16T04:16:02;7.90;;;3.80;;
60205;SDS011;46072;51.554;6.846;2022-10-16T04:18:29;7.63;;;3.95;;
60205;SDS011;46072;51.554;6.846;2022-10-16T04:20:55;9.05;;;3.60;;
60205;SDS011;46072;51.554;6.846;2022-10-16T04:23:22;7.78;;;3.65;;
60205;SDS011;46072;51.554;6.846;2022-10-16T04:25:49;7.85;;;3.70;;
60205;SDS011;46072;51.554;6.846;2022-10-16T04:28:16;9.40;;;4.35;;
60205;SDS011;46072;51.554;6.846;2022-10-16T04:30:42;9.45;;;3.88;;
60205;SDS011;46072;51.554;6.846;2022-10-16T04:33:09;9.18;;;4.20;;
60205;SDS011;46072;51.554;6.846;2022-10-16T04:35:36;8.57;;;4.15;;
60205;SDS011;46072;51.554;6.846;2022-10-16T04:38:02;7.60;;;3.63;;
60205;SDS011;46072;51.554;6.846;2022-10-16T04:40:29;10.15;;;4.45;;
60205;SDS011;46072;51.554;6.846;2022-10-16T04:42:59;10.55;;;3.95;;
60205;SDS011;46072;51.554;6.846;2022-10-16T04:45:25;9.70;;;4.00;;
60205;SDS011;46072;51.554;6.846;2022-10-16T04:47:52;8.23;;;3.90;;
60205;SDS011;46072;51.554;6.846;2022-10-16T04:50:18;9.93;;;3.55;;
60205;SDS011;46072;51.554;6.846;2022-10-16T04:52:44;8.23;;;3.60;;
60205;SDS011;46072;51.554;6.846;2022-10-16T04:55:11;8.95;;;3.80;;
60205;SDS011;46072;51.554;6.846;2022-10-16T04:57:38;7.30;;;3.63;;
60205;SDS011;46072;51.554;6.846;2022-10-16T05:00:04;7.78;;;3.33;;
60205;SDS011;46072;51.554;6.846;2022-10-16T05:02:31;7.22;;;3.50;;
60205;SDS011;46072;51.554;6.846;2022-10-16T05:04:58;7.95;;;3.63;;
60205;SDS011;46072;51.554;6.846;2022-10-16T05:07:24;8.00;;;3.40;;
60205;SDS011;46072;51.554;6.846;2022-10-16T05:09:51;6.55;;;3.30;;
60205;SDS011;46072;51.554;6.846;2022-10-16T05:12:18;8.40;;;3.90;;
60205;SDS011;46072;51.554;6.846;2022-10-16T05:14:44;9.60;;;3.92;;
60205;SDS011;46072;51.554;6.846;2022-10-16T05:17:11;6.88;;;3.63;;
60205;SDS011;46072;51.554;6.846;2022-10-16T05:19:37;7.45;;;3.70;;
60205;SDS011;46072;51.554;6.846;2022-10-16T05:22:03;9.27;;;3.55;;
60205;SDS011;46072;51.554;6.846;2022-10-16T05:24:30;11.05;;;3.42;;
60205;SDS011;46072;51.554;6.846;2022-10-16T05:26:56;9.50;;;3.67;;
60205;SDS011;46072;51.554;6.846;2022-10-16T05:29:23;8.85;;;3.80;;
60205;SDS011;46072;51.554;6.846;2022-10-16T05:31:50;6.38;;;3.88;;
60205;SDS011;46072;51.554;6.846;2022-10-16T05:34:19;8.93;;;3.88;;
60205;SDS011;46072;51.554;6.846;2022-10-16T05:36:46;7.63;;;3.60;;
60205;SDS011;46072;51.554;6.846;2022-10-16T05:39:13;9.18;;;3.97;;
60205;SDS011;46072;51.554;6.846;2022-10-16T05:41:41;10.88;;;3.75;;
60205;SDS011;46072;51.554;6.846;2022-10-16T05:44:07;9.35;;;3.63;;
60205;SDS011;46072;51.554;6.846;2022-10-16T05:46:33;9.55;;;3.92;;
60205;SDS011;46072;51.554;6.846;2022-10-16T05:49:00;10.57;;;4.28;;
60205;SDS011;46072;51.554;6.846;2022-10-16T05:51:27;12.77;;;4.35;;
60205;SDS011;46072;51.554;6.846;2022-10-16T05:53:53;7.30;;;4.15;;
60205;SDS011;46072;51.554;6.846;2022-10-16T05:56:19;11.07;;;4.80;;
60205;SDS011;46072;51.554;6.846;2022-10-16T05:58:46;7.85;;;4.78;;
60205;SDS011;46072;51.554;6.846;2022-10-16T06:01:13;7.60;;;4.28;;
60205;SDS011;46072;51.554;6.846;2022-10-16T06:03:42;9.63;;;4.70;;
60205;SDS011;46072;51.554;6.846;2022-10-16T06:06:10;10.35;;;4.70;;
60205;SDS011;46072;51.554;6.846;2022-10-16T06:08:38;8.98;;;3.92;;
60205;SDS011;46072;51.554;6.846;2022-10-16T06:11:05;9.52;;;4.32;;
60205;SDS011;46072;51.554;6.846;2022-10-16T06:13:33;10.80;;;4.82;;
60205;SDS011;46072;51.554;6.846;2022-10-16T06:16:00;16.08;;;4.82;;
60205;SDS011;46072;51.554;6.846;2022-10-16T06:18:27;9.70;;;4.30;;
60205;SDS011;46072;51.554;6.846;2022-10-16T06:20:54;8.30;;;4.20;;
60205;SDS011;46072;51.554;6.846;2022-10-16T06:23:21;8.38;;;3.88;;
60205;SDS011;46072;51.554;6.846;2022-10-16T06:25:48;8.43;;;4.85;;
60205;SDS011;46072;51.554;6.846;2022-10-16T06:28:14;12.88;;;4.78;;
60205;SDS011;46072;51.554;6.846;2022-10-16T06:30:41;6.97;;;4.13;;
60205;SDS011;46072;51.554;6.846;2022-10-16T06:33:10;9.23;;;3.80;;
60205;SDS011;46072;51.554;6.846;2022-10-16T06:35:37;6.90;;;4.18;;
60205;SDS011;46072;51.554;6.846;2022-10-16T06:38:03;12.45;;;4.20;;
60205;SDS011;46072;51.554;6.846;2022-10-16T06:40:30;12.15;;;4.20;;
60205;SDS011;46072;51.554;6.846;2022-10-16T06:42:56;9.38;;;4.10;;
60205;SDS011;46072;51.554;6.846;2022-10-16T06:45:23;7.45;;;4.35;;
60205;SDS011;46072;51.554;6.846;2022-10-16T06:47:49;11.57;;;4.30;;
60205;SDS011;46072;51.554;6.846;2022-10-16T06:50:16;6.80;;;3.80;;
60205;SDS011;46072;51.554;6.846;2022-10-16T06:52:42;9.93;;;4.13;;
60205;SDS011;46072;51.554;6.846;2022-10-16T06:55:08;8.52;;;4.45;;
60205;SDS011;46072;51.554;6.846;2022-10-16T06:57:35;9.68;;;4.45;;
60205;SDS011;46072;51.554;6.846;2022-10-16T07:00:02;7.68;;;4.20;;
60205;SDS011;46072;51.554;6.846;2022-10-16T07:02:30;10.93;;;4.97;;
60205;SDS011;46072;51.554;6.846;2022-10-16T07:04:56;11.27;;;4.75;;
60205;SDS011;46072;51.554;6.846;2022-10-16T07:07:23;14.07;;;5.57;;
60205;SDS011;46072;51.554;6.846;2022-10-16T07:09:52;9.68;;;4.80;;
60205;SDS011;46072;51.554;6.846;2022-10-16T07:12:18;12.25;;;5.78;;
60205;SDS011;46072;51.554;6.846;2022-10-16T07:14:45;14.25;;;5.25;;
60205;SDS011;46072;51.554;6.846;2022-10-16T07:17:11;12.73;;;5.55;;
60205;SDS011;46072;51.554;6.846;2022-10-16T07:19:38;14.70;;;6.07;;
60205;SDS011;46072;51.554;6.846;2022-10-16T07:22:04;13.55;;;5.97;;
60205;SDS011;46072;51.554;6.846;2022-10-16T07:24:31;13.50;;;5.55;;
60205;SDS011;46072;51.554;6.846;2022-10-16T07:26:57;10.13;;;5.88;;
60205;SDS011;46072;51.554;6.846;2022-10-16T07:29:24;12.32;;;5.70;;
60205;SDS011;46072;51.554;6.846;2022-10-16T07:31:50;10.57;;;5.75;;
60205;SDS011;46072;51.554;6.846;2022-10-16T07:34:17;14.13;;;6.38;;
60205;SDS011;46072;51.554;6.846;2022-10-16T07:36:47;12.70;;;5.25;;
60205;SDS011;46072;51.554;6.846;2022-10-16T07:39:14;12.60;;;5.38;;
60205;SDS011;46072;51.554;6.846;2022-10-16T07:41:40;11.52;;;5.38;;
60205;SDS011;46072;51.554;6.846;2022-10-16T07:44:07;15.38;;;5.20;;
60205;SDS011;46072;51.554;6.846;2022-10-16T07:46:34;10.77;;;5.70;;
60205;SDS011;46072;51.554;6.846;2022-10-16T07:49:02;15.05;;;5.00;;
60205;SDS011;46072;51.554;6.846;2022-10-16T07:51:29;15.45;;;4.72;;
60205;SDS011;46072;51.554;6.846;2022-10-16T07:53:56;9.50;;;4.63;;
60205;SDS011;46072;51.554;6.846;2022-10-16T07:56:22;10.48;;;4.95;;
60205;SDS011;46072;51.554;6.846;2022-10-16T07:58:49;9.82;;;4.93;;
60205;SDS011;46072;51.554;6.846;2022-10-16T08:01:16;11.00;;;4.93;;
60205;SDS011;46072;51.554;6.846;2022-10-16T08:03:44;12.35;;;4.60;;
60205;SDS011;46072;51.554;6.846;2022-10-16T08:06:12;8.88;;;4.03;;
60205;SDS011;46072;51.554;6.846;2022-10-16T08:08:38;9.30;;;4.07;;
60205;SDS011;46072;51.554;6.846;2022-10-16T08:11:05;10.45;;;4.63;;
60205;SDS011;46072;51.554;6.846;2022-10-16T08:13:32;10.82;;;3.70;;
60205;SDS011;46072;51.554;6.846;2022-10-16T08:15:58;10.63;;;3.85;;
60205;SDS011;46072;51.554;6.846;2022-10-16T08:18:24;9.38;;;3.58;;
60205;SDS011;46072;51.554;6.846;2022-10-16T08:20:55;9.05;;;3.58;;
60205;SDS011;46072;51.554;6.846;2022-10-16T08:23:23;12.98;;;4.13;;
60205;SDS011;46072;51.554;6.846;2022-10-16T08:25:55;7.88;;;3.53;;
60205;SDS011;46072;51.554;6.846;2022-10-16T08:28:22;8.52;;;4.03;;
60205;SDS011;46072;51.554;6.846;2022-10-16T08:30:49;9.93;;;3.60;;
60205;SDS011;46072;51.554;6.846;2022-10-16T08:33:15;11.27;;;3.80;;
60205;SDS011;46072;51.554;6.846;2022-10-16T08:35:42;8.85;;;3.53;;
60205;SDS011;46072;51.554;6.846;2022-10-16T08:38:08;9.15;;;3.45;;
60205;SDS011;46072;51.554;6.846;2022-10-16T08:40:36;9.98;;;3.60;;
60205;SDS011;46072;51.554;6.846;2022-10-16T08:48:54;12.95;;;3.85;;
60205;SDS011;46072;51.554;6.846;2022-10-16T08:53:57;15.40;;;3.78;;
60205;SDS011;46072;51.554;6.846;2022-10-16T08:56:25;12.35;;;4.00;;
60205;SDS011;46072;51.554;6.846;2022-10-16T08:58:53;10.55;;;3.15;;
60205;SDS011;46072;51.554;6.846;2022-10-16T09:01:35;21.20;;;4.53;;
60205;SDS011;46072;51.554;6.846;2022-10-16T09:06:54;10.60;;;3.47;;
60205;SDS011;46072;51.554;6.846;2022-10-16T09:09:29;9.80;;;3.45;;
60205;SDS011;46072;51.554;6.846;2022-10-16T09:12:05;9.50;;;3.53;;
60205;SDS011;46072;51.554;6.846;2022-10-16T09:14:50;10.25;;;3.45;;
60205;SDS011;46072;51.554;6.846;2022-10-16T09:17:30;14.05;;;4.03;;
60205;SDS011;46072;51.554;6.846;2022-10-16T09:22:46;7.38;;;3.38;;
60205;SDS011;46072;51.554;6.846;2022-10-16T09:25:14;9.43;;;3.05;;
60205;SDS011;46072;51.554;6.846;2022-10-16T09:27:44;12.90;;;3.00;;
60205;SDS011;46072;51.554;6.846;2022-10-16T09:30:17;9.80;;;2.85;;
60205;SDS011;46072;51.554;6.846;2022-10-16T09:32:45;10.63;;;3.05;;
60205;SDS011;46072;51.554;6.846;2022-10-16T09:38:46;13.82;;;2.92;;
60205;SDS011;46072;51.554;6.846;2022-10-16T09:41:13;11.18;;;3.33;;
60205;SDS011;46072;51.554;6.846;2022-10-16T09:43:57;9.80;;;2.75;;
60205;SDS011;46072;51.554;6.846;2022-10-16T09:46:29;6.53;;;2.30;;
60205;SDS011;46072;51.554;6.846;2022-10-16T09:48:59;4.85;;;2.70;;
60205;SDS011;46072;51.554;6.846;2022-10-16T09:51:28;5.78;;;2.33;;
60205;SDS011;46072;51.554;6.846;2022-10-16T09:54:02;5.63;;;2.53;;
60205;SDS011;46072;51.554;6.846;2022-10-16T09:56:39;6.18;;;2.78;;
60205;SDS011;46072;51.554;6.846;2022-10-16T09:59:13;8.52;;;3.05;;
60205;SDS011;46072;51.554;6.846;2022-10-16T10:01:45;10.82;;;3.03;;
60205;SDS011;46072;51.554;6.846;2022-10-16T10:04:13;13.23;;;2.97;;
60205;SDS011;46072;51.554;6.846;2022-10-16T10:06:41;7.68;;;2.53;;
60205;SDS011;46072;51.554;6.846;2022-10-16T10:12:00;6.75;;;2.35;;
60205;SDS011;46072;51.554;6.846;2022-10-16T10:25:34;7.03;;;2.80;;
60205;SDS011;46072;51.554;6.846;2022-10-16T10:33:41;6.43;;;2.17;;
60205;SDS011;46072;51.554;6.846;2022-10-16T10:36:27;5.22;;;2.30;;
60205;SDS011;46072;51.554;6.846;2022-10-16T10:39:15;8.02;;;2.00;;
60205;SDS011;46072;51.554;6.846;2022-10-16T10:50:07;10.25;;;2.30;;
60205;SDS011;46072;51.554;6.846;2022-10-16T10:52:56;6.85;;;2.05;;
60205;SDS011;46072;51.554;6.846;2022-10-16T11:03:41;6.70;;;2.00;;
60205;SDS011;46072;51.554;6.846;2022-10-16T11:09:13;4.93;;;2.00;;
60205;SDS011;46072;51.554;6.846;2022-10-16T11:11:45;6.88;;;2.08;;
60205;SDS011;46072;51.554;6.846;2022-10-16T11:14:19;9.80;;;2.08;;
60205;SDS011;46072;51.554;6.846;2022-10-16T11:17:10;9.88;;;2.17;;
60205;SDS011;46072;51.554;6.846;2022-10-16T11:19:41;5.80;;;2.03;;
60205;SDS011;46072;51.554;6.846;2022-10-16T11:24:51;6.05;;;2.15;;
60205;SDS011;46072;51.554;6.846;2022-10-16T11:27:28;6.63;;;2.20;;
60205;SDS011;46072;51.554;6.846;2022-10-16T11:30:02;11.77;;;2.45;;
60205;SDS011;46072;51.554;6.846;2022-10-16T11:32:33;7.10;;;2.03;;
60205;SDS011;46072;51.554;6.846;2022-10-16T11:35:06;5.50;;;1.90;;
60205;SDS011;46072;51.554;6.846;2022-10-16T11:37:40;4.90;;;2.00;;
60205;SDS011;46072;51.554;6.846;2022-10-16T11:40:30;6.18;;;2.67;;
60205;SDS011;46072;51.554;6.846;2022-10-16T11:43:08;5.45;;;2.20;;
60205;SDS011;46072;51.554;6.846;2022-10-16T11:45:55;10.15;;;2.33;;
60205;SDS011;46072;51.554;6.846;2022-10-16T11:51:00;7.78;;;2.30;;
60205;SDS011;46072;51.554;6.846;2022-10-16T11:56:20;5.95;;;2.15;;
60205;SDS011;46072;51.554;6.846;2022-10-16T11:59:04;4.10;;;1.70;;
60205;SDS011;46072;51.554;6.846;2022-10-16T12:01:40;5.82;;;1.88;;
60205;SDS011;46072;51.554;6.846;2022-10-16T12:07:04;7.78;;;2.05;;
60205;SDS011;46072;51.554;6.846;2022-10-16T12:09:34;10.68;;;2.10;;
60205;SDS011;46072;51.554;6.846;2022-10-16T12:12:04;5.22;;;1.85;;
60205;SDS011;46072;51.554;6.846;2022-10-16T12:14:36;7.03;;;2.25;;
60205;SDS011;46072;51.554;6.846;2022-10-16T12:17:37;5.95;;;2.05;;
60205;SDS011;46072;51.554;6.846;2022-10-16T12:22:50;8.48;;;2.72;;
60205;SDS011;46072;51.554;6.846;2022-10-16T12:30:28;6.43;;;2.05;;
60205;SDS011;46072;51.554;6.846;2022-10-16T12:33:02;8.00;;;2.67;;
60205;SDS011;46072;51.554;6.846;2022-10-16T12:35:32;7.30;;;2.13;;
60205;SDS011;46072;51.554;6.846;2022-10-16T12:38:36;10.20;;;2.53;;
60205;SDS011;46072;51.554;6.846;2022-10-16T12:41:04;7.00;;;2.05;;
60205;SDS011;46072;51.554;6.846;2022-10-16T12:46:45;6.55;;;2.17;;
60205;SDS011;46072;51.554;6.846;2022-10-16T12:51:40;8.57;;;2.33;;
60205;SDS011;46072;51.554;6.846;2022-10-16T12:54:14;5.65;;;2.10;;
60205;SDS011;46072;51.554;6.846;2022-10-16T13:01:52;7.65;;;2.20;;
60205;SDS011;46072;51.554;6.846;2022-10-16T13:07:21;6.03;;;2.33;;
60205;SDS011;46072;51.554;6.846;2022-10-16T13:13:07;5.05;;;2.10;;
60205;SDS011;46072;51.554;6.846;2022-10-16T13:24:19;6.55;;;1.98;;
60205;SDS011;46072;51.554;6.846;2022-10-16T13:26:57;7.07;;;2.22;;
60205;SDS011;46072;51.554;6.846;2022-10-16T13:29:30;6.78;;;2.38;;
60205;SDS011;46072;51.554;6.846;2022-10-16T13:31:57;11.45;;;2.47;;
60205;SDS011;46072;51.554;6.846;2022-10-16T13:34:24;6.28;;;1.80;;
60205;SDS011;46072;51.554;6.846;2022-10-16T13:36:52;9.75;;;2.25;;
60205;SDS011;46072;51.554;6.846;2022-10-16T13:39:26;6.97;;;2.55;;
60205;SDS011;46072;51.554;6.846;2022-10-16T13:42:06;7.32;;;2.25;;
60205;SDS011;46072;51.554;6.846;2022-10-16T13:44:39;4.75;;;2.00;;
60205;SDS011;46072;51.554;6.846;2022-10-16T13:49:44;9.25;;;2.67;;
60205;SDS011;46072;51.554;6.846;2022-10-16T13:52:17;5.63;;;2.20;;
60205;SDS011;46072;51.554;6.846;2022-10-16T13:54:45;7.75;;;2.42;;
60205;SDS011;46072;51.554;6.846;2022-10-16T13:57:13;7.47;;;2.08;;
60205;SDS011;46072;51.554;6.846;2022-10-16T13:59:53;15.15;;;2.22;;
60205;SDS011;46072;51.554;6.846;2022-10-16T14:02:36;7.95;;;2.13;;
60205;SDS011;46072;51.554;6.846;2022-10-16T14:05:04;6.47;;;1.80;;
60205;SDS011;46072;51.554;6.846;2022-10-16T14:07:35;4.88;;;1.90;;
60205;SDS011;46072;51.554;6.846;2022-10-16T14:10:06;5.25;;;1.85;;
60205;SDS011;46072;51.554;6.846;2022-10-16T14:12:44;6.97;;;2.35;;
60205;SDS011;46072;51.554;6.846;2022-10-16T14:15:17;11.13;;;2.30;;
60205;SDS011;46072;51.554;6.846;2022-10-16T14:17:45;7.43;;;1.92;;
60205;SDS011;46072;51.554;6.846;2022-10-16T14:20:15;9.52;;;2.20;;
60205;SDS011;46072;51.554;6.846;2022-10-16T14:22:42;8.88;;;2.30;;
60205;SDS011;46072;51.554;6.846;2022-10-16T14:25:20;9.38;;;2.45;;
60205;SDS011;46072;51.554;6.846;2022-10-16T14:28:03;9.15;;;3.00;;
60205;SDS011;46072;51.554;6.846;2022-10-16T14:30:31;13.10;;;3.70;;
60205;SDS011;46072;51.554;6.846;2022-10-16T14:33:00;12.55;;;2.90;;
60205;SDS011;46072;51.554;6.846;2022-10-16T14:35:36;8.20;;;2.85;;
60205;SDS011;46072;51.554;6.846;2022-10-16T14:38:04;10.73;;;2.85;;
60205;SDS011;46072;51.554;6.846;2022-10-16T14:40:32;10.10;;;2.97;;
60205;SDS011;46072;51.554;6.846;2022-10-16T14:43:01;9.63;;;3.10;;
60205;SDS011;46072;51.554;6.846;2022-10-16T14:45:29;13.07;;;3.42;;
60205;SDS011;46072;51.554;6.846;2022-10-16T14:47:58;11.25;;;3.42;;
60205;SDS011;46072;51.554;6.846;2022-10-16T14:50:25;12.52;;;3.20;;
60205;SDS011;46072;51.554;6.846;2022-10-16T14:52:52;6.30;;;3.00;;
60205;SDS011;46072;51.554;6.846;2022-10-16T14:55:18;12.68;;;3.00;;
60205;SDS011;46072;51.554;6.846;2022-10-16T14:57:45;8.73;;;2.50;;
60205;SDS011;46072;51.554;6.846;2022-10-16T15:00:20;10.43;;;2.75;;
60205;SDS011;46072;51.554;6.846;2022-10-16T15:02:48;10.40;;;2.20;;
60205;SDS011;46072;51.554;6.846;2022-10-16T15:07:51;7.30;;;2.80;;
60205;SDS011;46072;51.554;6.846;2022-10-16T15:10:21;6.97;;;2.25;;
60205;SDS011;46072;51.554;6.846;2022-10-16T15:12:49;6.85;;;2.13;;
60205;SDS011;46072;51.554;6.846;2022-10-16T15:15:35;8.85;;;2.33;;
60205;SDS011;46072;51.554;6.846;2022-10-16T15:18:03;8.35;;;2.35;;
60205;SDS011;46072;51.554;6.846;2022-10-16T15:20:31;6.95;;;2.55;;
60205;SDS011;46072;51.554;6.846;2022-10-16T15:23:01;9.73;;;2.80;;
60205;SDS011;46072;51.554;6.846;2022-10-16T15:25:43;7.50;;;2.67;;
60205;SDS011;46072;51.554;6.846;2022-10-16T15:28:11;7.07;;;2.40;;
60205;SDS011;46072;51.554;6.846;2022-10-16T15:30:39;6.07;;;2.35;;
60205;SDS011;46072;51.554;6.846;2022-10-16T15:33:10;5.53;;;2.28;;
60205;SDS011;46072;51.554;6.846;2022-10-16T15:35:39;6.18;;;2.28;;
60205;SDS011;46072;51.554;6.846;2022-10-16T15:38:05;6.72;;;2.25;;
60205;SDS011;46072;51.554;6.846;2022-10-16T15:40:32;14.57;;;2.53;;
60205;SDS011;46072;51.554;6.846;2022-10-16T15:42:58;5.38;;;2.10;;
60205;SDS011;46072;51.554;6.846;2022-10-16T15:45:25;6.93;;;2.47;;
60205;SDS011;46072;51.554;6.846;2022-10-16T15:47:51;8.50;;;2.55;;
60205;SDS011;46072;51.554;6.846;2022-10-16T15:50:18;6.55;;;2.78;;
60205;SDS011;46072;51.554;6.846;2022-10-16T15:52:44;6.35;;;2.63;;
60205;SDS011;46072;51.554;6.846;2022-10-16T15:55:11;11.15;;;3.22;;
60205;SDS011;46072;51.554;6.846;2022-10-16T15:57:39;8.90;;;3.22;;
60205;SDS011;46072;51.554;6.846;2022-10-16T16:00:07;8.00;;;2.97;;
60205;SDS011;46072;51.554;6.846;2022-10-16T16:02:36;6.85;;;3.42;;
60205;SDS011;46072;51.554;6.846;2022-10-16T16:05:02;10.32;;;3.55;;
60205;SDS011;46072;51.554;6.846;2022-10-16T16:07:36;10.55;;;3.60;;
60205;SDS011;46072;51.554;6.846;2022-10-16T16:10:05;13.90;;;5.00;;
60205;SDS011;46072;51.554;6.846;2022-10-16T16:12:33;16.00;;;5.45;;
60205;SDS011;46072;51.554;6.846;2022-10-16T16:15:00;15.10;;;5.53;;
60205;SDS011;46072;51.554;6.846;2022-10-16T16:17:31;14.13;;;4.78;;
60205;SDS011;46072;51.554;6.846;2022-10-16T16:19:58;9.57;;;3.85;;
60205;SDS011;46072;51.554;6.846;2022-10-16T16:22:25;12.25;;;4.53;;
60205;SDS011;46072;51.554;6.846;2022-10-16T16:24:52;12.95;;;4.40;;
60205;SDS011;46072;51.554;6.846;2022-10-16T16:27:19;12.27;;;4.55;;
60205;SDS011;46072;51.554;6.846;2022-10-16T16:29:46;8.57;;;4.75;;
60205;SDS011;46072;51.554;6.846;2022-10-16T16:32:14;11.60;;;5.15;;
60205;SDS011;46072;51.554;6.846;2022-10-16T16:34:40;17.25;;;6.30;;
60205;SDS011;46072;51.554;6.846;2022-10-16T16:37:06;17.38;;;6.82;;
60205;SDS011;46072;51.554;6.846;2022-10-16T16:39:33;15.23;;;5.72;;
60205;SDS011;46072;51.554;6.846;2022-10-16T16:42:00;9.23;;;4.78;;
60205;SDS011;46072;51.554;6.846;2022-10-16T16:44:28;10.70;;;4.75;;
60205;SDS011;46072;51.554;6.846;2022-10-16T16:46:55;11.27;;;4.15;;
60205;SDS011;46072;51.554;6.846;2022-10-16T16:49:21;19.92;;;4.78;;
60205;SDS011;46072;51.554;6.846;2022-10-16T16:51:48;8.85;;;3.88;;
60205;SDS011;46072;51.554;6.846;2022-10-16T16:54:14;10.10;;;3.67;;
60205;SDS011;46072;51.554;6.846;2022-10-16T16:56:41;13.63;;;4.50;;
60205;SDS011;46072;51.554;6.846;2022-10-16T16:59:16;12.63;;;4.80;;